createdAt,value
2018-08-10T00:00:36.115Z,47.80
2018-08-10T00:01:40.862Z,47.80
2018-08-10T00:02:45.650Z,47.70
2018-08-10T00:03:50.456Z,47.80
2018-08-10T00:04:55.299Z,47.70
2018-08-10T00:06:00.147Z,47.70
2018-08-10T00:07:04.899Z,47.70
2018-08-10T00:08:09.680Z,47.90
2018-08-10T00:09:14.666Z,47.90
2018-08-10T00:10:19.582Z,48.00
2018-08-10T00:11:24.341Z,48.00
2018-08-10T00:12:29.183Z,48.10
2018-08-10T00:13:34.042Z,48.10
2018-08-10T00:14:38.864Z,48.10
2018-08-10T00:15:43.679Z,48.20
2018-08-10T00:16:48.582Z,48.00
2018-08-10T00:17:53.469Z,48.10
2018-08-10T00:18:58.212Z,48.10
2018-08-10T00:20:02.985Z,47.90
2018-08-10T00:21:07.783Z,47.90
2018-08-10T00:22:12.597Z,47.80
2018-08-10T00:23:17.394Z,47.70
2018-08-10T00:24:22.242Z,47.60
2018-08-10T00:25:27.057Z,47.50
2018-08-10T00:26:31.853Z,47.40
2018-08-10T00:27:36.658Z,47.30
2018-08-10T00:28:41.487Z,47.10
2018-08-10T00:29:46.448Z,47.00
2018-08-10T00:30:51.248Z,47.00
2018-08-10T00:31:56.036Z,47.00
2018-08-10T00:33:01.077Z,47.00
2018-08-10T00:34:05.792Z,46.80
2018-08-10T00:35:10.530Z,46.70
2018-08-10T00:36:15.478Z,46.70
2018-08-10T00:37:20.385Z,46.70
2018-08-10T00:38:25.176Z,46.70
2018-08-10T00:39:30.076Z,46.70
2018-08-10T00:40:35.036Z,46.80
2018-08-10T00:41:39.920Z,46.50
2018-08-10T00:42:44.707Z,46.40
2018-08-10T00:43:49.672Z,46.40
2018-08-10T00:44:54.475Z,46.40
2018-08-10T00:45:59.387Z,46.40
2018-08-10T00:47:04.140Z,46.40
2018-08-10T00:48:09.095Z,46.40
2018-08-10T00:49:13.978Z,46.40
2018-08-10T00:50:18.913Z,46.40
2018-08-10T00:51:23.834Z,46.50
2018-08-10T00:52:28.596Z,46.40
2018-08-10T00:53:33.562Z,46.30
2018-08-10T00:54:38.390Z,46.20
2018-08-10T00:55:43.153Z,46.30
2018-08-10T00:56:48.096Z,46.40
2018-08-10T00:57:52.891Z,46.40
2018-08-10T00:58:57.749Z,46.50
2018-08-10T01:00:02.663Z,46.30
2018-08-10T01:01:07.444Z,46.40
2018-08-10T01:02:12.534Z,46.40
2018-08-10T01:03:17.274Z,46.40
2018-08-10T01:04:22.140Z,46.20
2018-08-10T01:05:26.868Z,46.10
2018-08-10T01:06:31.750Z,46.00
2018-08-10T01:07:36.579Z,46.00
2018-08-10T01:08:41.549Z,45.90
2018-08-10T01:09:46.508Z,46.60
2018-08-10T01:10:51.382Z,46.00
2018-08-10T01:11:56.111Z,45.90
2018-08-10T01:13:01.113Z,45.90
2018-08-10T01:14:05.868Z,46.00
2018-08-10T01:15:10.775Z,46.00
2018-08-10T01:16:15.683Z,45.90
2018-08-10T01:17:20.592Z,45.70
2018-08-10T01:18:25.483Z,45.80
2018-08-10T01:19:30.413Z,45.70
2018-08-10T01:20:35.115Z,45.60
2018-08-10T01:21:39.888Z,45.40
2018-08-10T01:22:44.884Z,45.40
2018-08-10T01:23:50.244Z,45.50
2018-08-10T01:24:55.178Z,45.40
2018-08-10T01:26:00.213Z,46.00
2018-08-10T01:27:05.198Z,45.30
2018-08-10T01:28:10.116Z,45.20
2018-08-10T01:29:15.022Z,45.20
2018-08-10T01:30:20.029Z,45.20
2018-08-10T01:31:24.906Z,45.20
2018-08-10T01:32:29.635Z,45.20
2018-08-10T01:33:34.425Z,45.30
2018-08-10T01:34:39.437Z,45.30
2018-08-10T01:35:44.304Z,45.30
2018-08-10T01:36:49.018Z,45.40
2018-08-10T01:37:53.927Z,45.50
2018-08-10T01:38:58.671Z,45.50
2018-08-10T01:40:03.502Z,45.40
2018-08-10T01:41:08.433Z,45.30
2018-08-10T01:42:13.454Z,45.30
2018-08-10T01:43:18.261Z,45.50
2018-08-10T01:44:23.174Z,45.40
2018-08-10T01:45:28.185Z,45.40
2018-08-10T01:46:32.967Z,45.30
2018-08-10T01:47:37.977Z,45.20
2018-08-10T01:48:42.767Z,45.20
2018-08-10T01:49:47.780Z,45.30
2018-08-10T01:50:52.667Z,45.40
2018-08-10T01:51:57.445Z,45.40
2018-08-10T01:53:02.403Z,45.50
2018-08-10T01:54:07.178Z,45.50
2018-08-10T01:55:12.137Z,45.60
2018-08-10T01:56:16.876Z,45.50
2018-08-10T01:57:21.660Z,45.50
2018-08-10T01:58:26.449Z,45.40
2018-08-10T01:59:31.339Z,46.20
2018-08-10T02:00:36.271Z,45.50
2018-08-10T02:01:41.148Z,45.50
2018-08-10T02:02:46.072Z,45.40
2018-08-10T02:03:50.937Z,45.40
2018-08-10T02:04:55.693Z,45.30
2018-08-10T02:06:00.494Z,45.30
2018-08-10T02:07:05.382Z,45.30
2018-08-10T02:08:10.324Z,45.10
2018-08-10T02:09:15.101Z,45.40
2018-08-10T02:10:20.060Z,45.40
2018-08-10T02:11:24.832Z,45.50
2018-08-10T02:12:29.634Z,45.50
2018-08-10T02:13:34.613Z,45.50
2018-08-10T02:14:39.545Z,45.40
2018-08-10T02:15:44.457Z,45.60
2018-08-10T02:16:49.370Z,45.70
2018-08-10T02:17:54.283Z,45.70
2018-08-10T02:18:59.198Z,45.60
2018-08-10T02:20:04.071Z,45.50
2018-08-10T02:21:08.810Z,45.60
2018-08-10T02:22:13.527Z,45.60
2018-08-10T02:23:18.477Z,45.60
2018-08-10T02:24:23.326Z,45.60
2018-08-10T02:25:28.243Z,45.60
2018-08-10T02:26:33.171Z,45.60
2018-08-10T02:27:38.261Z,45.60
2018-08-10T02:28:42.970Z,45.50
2018-08-10T02:29:47.872Z,45.40
2018-08-10T02:30:52.744Z,45.60
2018-08-10T02:31:57.705Z,45.60
2018-08-10T02:33:02.651Z,45.70
2018-08-10T02:34:07.434Z,45.60
2018-08-10T02:35:12.385Z,45.30
2018-08-10T02:36:17.209Z,45.20
2018-08-10T02:37:21.894Z,45.00
2018-08-10T02:38:26.645Z,44.80
2018-08-10T02:39:31.449Z,45.00
2018-08-10T02:40:36.400Z,45.00
2018-08-10T02:41:41.130Z,45.00
2018-08-10T02:42:45.909Z,45.10
2018-08-10T02:43:50.623Z,45.10
2018-08-10T02:44:55.372Z,45.00
2018-08-10T02:46:00.145Z,44.90
2018-08-10T02:47:04.926Z,44.80
2018-08-10T02:48:09.749Z,44.90
2018-08-10T02:49:14.489Z,44.80
2018-08-10T02:50:19.294Z,44.90
2018-08-10T02:51:24.102Z,44.90
2018-08-10T02:52:29.004Z,44.80
2018-08-10T02:53:33.811Z,44.90
2018-08-10T02:54:38.662Z,45.00
2018-08-10T02:55:43.588Z,45.00
2018-08-10T02:56:48.421Z,45.10
2018-08-10T02:57:53.324Z,45.10
2018-08-10T02:58:58.048Z,45.10
2018-08-10T03:00:02.823Z,45.10
2018-08-10T03:01:07.570Z,45.20
2018-08-10T03:02:12.329Z,45.20
2018-08-10T03:03:17.047Z,45.30
2018-08-10T03:04:22.155Z,45.20
2018-08-10T03:05:27.136Z,45.10
2018-08-10T03:06:31.916Z,45.20
2018-08-10T03:07:36.706Z,45.20
2018-08-10T03:08:41.435Z,45.30
2018-08-10T03:09:46.247Z,45.30
2018-08-10T03:10:51.035Z,45.20
2018-08-10T03:11:56.298Z,45.30
2018-08-10T03:13:01.134Z,45.30
2018-08-10T03:14:05.869Z,45.20
2018-08-10T03:15:10.661Z,45.20
2018-08-10T03:16:15.604Z,45.20
2018-08-10T03:17:20.568Z,45.20
2018-08-10T03:18:25.545Z,45.30
2018-08-10T03:19:30.279Z,45.20
2018-08-10T03:20:35.095Z,45.10
2018-08-10T03:21:39.895Z,45.00
2018-08-10T03:22:44.732Z,45.00
2018-08-10T03:23:49.502Z,45.00
2018-08-10T03:24:54.344Z,45.00
2018-08-10T03:25:59.063Z,45.10
2018-08-10T03:27:04.167Z,45.10
2018-08-10T03:28:08.952Z,45.10
2018-08-10T03:29:13.872Z,45.00
2018-08-10T03:30:18.831Z,45.10
2018-08-10T03:31:23.805Z,45.00
2018-08-10T03:32:28.742Z,45.10
2018-08-10T03:33:33.602Z,45.20
2018-08-10T03:34:38.369Z,45.20
2018-08-10T03:35:43.129Z,45.10
2018-08-10T03:36:48.025Z,45.10
2018-08-10T03:37:52.860Z,45.20
2018-08-10T03:38:57.617Z,45.10
2018-08-10T03:40:02.398Z,45.10
2018-08-10T03:41:07.167Z,45.00
2018-08-10T03:42:12.119Z,45.00
2018-08-10T03:43:17.238Z,45.00
2018-08-10T03:44:22.010Z,45.10
2018-08-10T03:45:27.011Z,45.20
2018-08-10T03:46:31.820Z,45.10
2018-08-10T03:47:36.684Z,45.10
2018-08-10T03:48:41.688Z,45.20
2018-08-10T03:49:46.455Z,45.10
2018-08-10T03:50:51.340Z,45.10
2018-08-10T03:51:56.284Z,45.10
2018-08-10T03:53:01.184Z,45.20
2018-08-10T03:54:06.154Z,45.20
2018-08-10T03:55:10.997Z,45.30
2018-08-10T03:56:15.733Z,45.20
2018-08-10T03:57:20.488Z,45.40
2018-08-10T03:58:25.404Z,45.40
2018-08-10T03:59:30.297Z,45.30
2018-08-10T04:00:35.189Z,45.30
2018-08-10T04:01:39.994Z,45.30
2018-08-10T04:02:44.830Z,45.20
2018-08-10T04:03:49.695Z,45.10
2018-08-10T04:04:54.463Z,45.10
2018-08-10T04:05:59.360Z,45.00
2018-08-10T04:07:04.257Z,45.10
2018-08-10T04:08:09.149Z,45.10
2018-08-10T04:09:14.023Z,45.10
2018-08-10T04:10:18.903Z,44.90
2018-08-10T04:11:23.719Z,45.00
2018-08-10T04:12:28.605Z,44.90
2018-08-10T04:13:33.345Z,45.00
2018-08-10T04:14:38.106Z,44.90
2018-08-10T04:15:42.897Z,45.00
2018-08-10T04:16:47.795Z,45.00
2018-08-10T04:17:52.580Z,45.10
2018-08-10T04:18:57.607Z,45.10
2018-08-10T04:20:02.358Z,45.10
2018-08-10T04:21:07.205Z,45.10
2018-08-10T04:22:12.079Z,45.10
2018-08-10T04:23:16.870Z,45.10
2018-08-10T04:24:22.732Z,45.10
2018-08-10T04:25:27.628Z,45.10
2018-08-10T04:26:32.467Z,45.00
2018-08-10T04:27:37.264Z,44.90
2018-08-10T04:28:42.038Z,45.00
2018-08-10T04:29:46.907Z,45.10
2018-08-10T04:30:51.977Z,45.10
2018-08-10T04:31:56.869Z,45.00
2018-08-10T04:33:01.760Z,45.10
2018-08-10T04:34:06.813Z,45.10
2018-08-10T04:35:11.732Z,45.10
2018-08-10T04:36:16.511Z,45.00
2018-08-10T04:37:21.224Z,45.10
2018-08-10T04:38:26.295Z,45.10
2018-08-10T04:39:31.292Z,45.10
2018-08-10T04:40:36.216Z,45.10
2018-08-10T04:41:41.067Z,45.00
2018-08-10T04:42:45.984Z,44.90
2018-08-10T04:43:50.749Z,44.80
2018-08-10T04:44:55.461Z,44.90
2018-08-10T04:46:00.380Z,44.90
2018-08-10T04:47:05.147Z,44.90
2018-08-10T04:48:10.104Z,45.00
2018-08-10T04:49:15.010Z,44.90
2018-08-10T04:50:19.977Z,45.00
2018-08-10T04:51:24.760Z,44.90
2018-08-10T04:52:29.716Z,45.00
2018-08-10T04:53:34.636Z,45.00
2018-08-10T04:54:39.666Z,45.10
2018-08-10T04:55:44.433Z,45.10
2018-08-10T04:56:49.360Z,45.00
2018-08-10T04:57:54.266Z,44.70
2018-08-10T04:58:59.065Z,44.80
2018-08-10T05:00:04.028Z,44.70
2018-08-10T05:01:08.944Z,44.50
2018-08-10T05:02:13.721Z,44.40
2018-08-10T05:03:18.589Z,44.40
2018-08-10T05:04:23.359Z,44.50
2018-08-10T05:05:28.257Z,44.60
2018-08-10T05:06:33.075Z,44.60
2018-08-10T05:07:37.820Z,44.40
2018-08-10T05:08:42.671Z,44.20
2018-08-10T05:09:47.603Z,44.20
2018-08-10T05:10:52.348Z,44.30
2018-08-10T05:11:57.174Z,44.30
2018-08-10T05:13:02.055Z,44.50
2018-08-10T05:14:06.840Z,44.20
2018-08-10T05:15:11.704Z,44.20
2018-08-10T05:16:16.578Z,44.20
2018-08-10T05:17:21.439Z,44.20
2018-08-10T05:18:26.324Z,44.10
2018-08-10T05:19:31.311Z,43.80
2018-08-10T05:20:36.267Z,43.60
2018-08-10T05:21:41.209Z,43.40
2018-08-10T05:22:45.882Z,43.20
2018-08-10T05:23:50.748Z,43.10
2018-08-10T05:24:55.492Z,43.10
2018-08-10T05:26:00.405Z,43.00
2018-08-10T05:27:05.355Z,43.20
2018-08-10T05:28:10.383Z,43.30
2018-08-10T05:29:15.253Z,43.40
2018-08-10T05:30:20.034Z,43.40
2018-08-10T05:31:25.045Z,43.50
2018-08-10T05:32:29.840Z,43.40
2018-08-10T05:33:34.628Z,43.40
2018-08-10T05:34:39.631Z,43.30
2018-08-10T05:35:44.557Z,43.30
2018-08-10T05:36:49.492Z,43.20
2018-08-10T05:37:54.475Z,43.20
2018-08-10T05:38:59.397Z,43.20
2018-08-10T05:40:04.174Z,43.20
2018-08-10T05:41:09.067Z,43.30
2018-08-10T05:42:13.892Z,43.30
2018-08-10T05:43:18.767Z,43.30
2018-08-10T05:44:23.763Z,43.10
2018-08-10T05:45:28.662Z,42.90
2018-08-10T05:46:33.419Z,43.00
2018-08-10T05:47:38.109Z,43.00
2018-08-10T05:48:42.828Z,43.00
2018-08-10T05:49:47.757Z,43.20
2018-08-10T05:50:52.484Z,43.10
2018-08-10T05:51:57.396Z,43.00
2018-08-10T05:53:02.131Z,42.80
2018-08-10T05:54:06.869Z,42.80
2018-08-10T05:55:11.786Z,42.80
2018-08-10T05:56:16.527Z,42.80
2018-08-10T05:57:21.318Z,42.90
2018-08-10T05:58:26.060Z,43.00
2018-08-10T05:59:30.772Z,43.00
2018-08-10T06:00:35.618Z,43.00
2018-08-10T06:01:40.478Z,42.80
2018-08-10T06:02:45.269Z,42.70
2018-08-10T06:03:50.097Z,42.90
2018-08-10T06:04:54.736Z,42.70
2018-08-10T06:05:59.687Z,42.40
2018-08-10T06:07:04.464Z,42.60
2018-08-10T06:08:09.328Z,43.00
2018-08-10T06:09:14.188Z,42.90
2018-08-10T06:10:18.931Z,42.60
2018-08-10T06:11:23.791Z,42.70
2018-08-10T06:12:28.610Z,42.40
2018-08-10T06:13:33.467Z,42.40
2018-08-10T06:14:38.343Z,42.50
2018-08-10T06:15:43.220Z,42.50
2018-08-10T06:16:48.089Z,42.60
2018-08-10T06:17:53.059Z,42.60
2018-08-10T06:18:58.000Z,42.70
2018-08-10T06:20:02.837Z,42.70
2018-08-10T06:21:07.517Z,42.80
2018-08-10T06:22:12.325Z,42.90
2018-08-10T06:23:17.201Z,42.90
2018-08-10T06:24:21.938Z,42.80
2018-08-10T06:25:26.624Z,42.70
2018-08-10T06:26:31.372Z,42.70
2018-08-10T06:27:36.321Z,42.90
2018-08-10T06:28:41.155Z,43.10
2018-08-10T06:29:45.947Z,43.10
2018-08-10T06:30:50.810Z,42.60
2018-08-10T06:31:55.731Z,42.50
2018-08-10T06:33:00.504Z,42.50
2018-08-10T06:34:05.617Z,42.60
2018-08-10T06:35:10.541Z,42.60
2018-08-10T06:36:15.485Z,42.40
2018-08-10T06:37:20.473Z,42.20
2018-08-10T06:38:25.252Z,42.00
2018-08-10T06:39:30.157Z,42.00
2018-08-10T06:40:34.946Z,42.10
2018-08-10T06:41:39.704Z,42.30
2018-08-10T06:42:44.626Z,42.30
2018-08-10T06:43:49.507Z,42.20
2018-08-10T06:44:54.570Z,42.30
2018-08-10T06:45:59.162Z,42.40
2018-08-10T06:47:03.907Z,42.50
2018-08-10T06:48:08.751Z,42.60
2018-08-10T06:49:13.662Z,42.40
2018-08-10T06:50:18.444Z,42.40
2018-08-10T06:51:23.231Z,42.40
2018-08-10T06:52:28.004Z,42.40
2018-08-10T06:53:32.886Z,42.50
2018-08-10T06:54:37.813Z,42.40
2018-08-10T06:55:42.754Z,42.40
2018-08-10T06:56:47.416Z,42.30
2018-08-10T06:57:52.168Z,42.30
2018-08-10T06:58:57.054Z,42.30
2018-08-10T07:00:01.995Z,42.30
2018-08-10T07:01:07.054Z,42.30
2018-08-10T07:02:11.885Z,42.40
2018-08-10T07:03:16.788Z,42.40
2018-08-10T07:04:21.690Z,42.20
2018-08-10T07:05:26.682Z,42.20
2018-08-10T07:06:31.578Z,42.20
2018-08-10T07:07:36.379Z,42.10
2018-08-10T07:08:41.099Z,42.10
2018-08-10T07:09:45.840Z,42.00
2018-08-10T07:10:50.603Z,42.20
2018-08-10T07:11:55.479Z,42.00
2018-08-10T07:13:00.562Z,42.00
2018-08-10T07:14:05.376Z,42.00
2018-08-10T07:15:10.346Z,42.00
2018-08-10T07:16:15.082Z,42.00
2018-08-10T07:17:19.843Z,42.00
2018-08-10T07:18:24.646Z,42.00
2018-08-10T07:19:29.466Z,42.20
2018-08-10T07:20:34.418Z,42.30
2018-08-10T07:21:39.423Z,42.30
2018-08-10T07:22:44.226Z,42.20
2018-08-10T07:23:49.141Z,42.20
2018-08-10T07:24:53.872Z,42.20
2018-08-10T07:25:58.772Z,42.00
2018-08-10T07:27:03.634Z,42.00
2018-08-10T07:28:08.520Z,42.10
2018-08-10T07:29:13.381Z,42.00
2018-08-10T07:30:18.259Z,42.00
2018-08-10T07:31:23.174Z,42.10
2018-08-10T07:32:27.886Z,42.00
2018-08-10T07:33:32.642Z,42.20
2018-08-10T07:34:37.502Z,42.30
2018-08-10T07:35:42.310Z,42.30
2018-08-10T07:36:47.185Z,42.30
2018-08-10T07:37:51.947Z,42.10
2018-08-10T07:38:56.801Z,42.10
2018-08-10T07:40:01.695Z,42.10
2018-08-10T07:41:06.627Z,42.10
2018-08-10T07:42:11.400Z,42.00
2018-08-10T07:43:16.125Z,41.80
2018-08-10T07:44:20.941Z,41.70
2018-08-10T07:45:25.815Z,41.70
2018-08-10T07:46:30.967Z,41.80
2018-08-10T07:47:35.712Z,41.70
2018-08-10T07:48:40.619Z,41.50
2018-08-10T07:49:45.374Z,41.60
2018-08-10T07:50:50.339Z,41.60
2018-08-10T07:51:55.228Z,41.50
2018-08-10T07:53:00.051Z,41.50
2018-08-10T07:54:04.926Z,41.40
2018-08-10T07:55:09.687Z,41.30
2018-08-10T07:56:14.566Z,41.30
2018-08-10T07:57:19.306Z,41.30
2018-08-10T07:58:24.024Z,41.20
2018-08-10T07:59:28.890Z,41.20
2018-08-10T08:00:33.675Z,41.50
2018-08-10T08:01:38.518Z,41.40
2018-08-10T08:02:43.344Z,41.20
2018-08-10T08:03:48.183Z,40.90
2018-08-10T08:04:53.082Z,40.70
2018-08-10T08:05:58.071Z,40.60
2018-08-10T08:07:03.146Z,40.60
2018-08-10T08:08:07.937Z,40.50
2018-08-10T08:09:12.864Z,40.50
2018-08-10T08:10:17.818Z,40.50
2018-08-10T08:11:22.718Z,40.50
2018-08-10T08:12:27.597Z,40.60
2018-08-10T08:13:32.377Z,40.50
2018-08-10T08:14:37.100Z,40.20
2018-08-10T08:15:41.880Z,40.20
2018-08-10T08:16:46.735Z,40.30
2018-08-10T08:17:51.454Z,40.40
2018-08-10T08:18:56.310Z,40.40
2018-08-10T08:20:01.305Z,40.50
2018-08-10T08:21:06.024Z,40.60
2018-08-10T08:22:10.802Z,40.60
2018-08-10T08:23:15.553Z,40.50
2018-08-10T08:24:20.481Z,40.50
2018-08-10T08:25:25.365Z,40.40
2018-08-10T08:26:30.278Z,40.40
2018-08-10T08:27:35.017Z,40.30
2018-08-10T08:28:39.879Z,40.10
2018-08-10T08:29:44.743Z,40.10
2018-08-10T08:30:49.577Z,40.10
2018-08-10T08:31:54.411Z,40.20
2018-08-10T08:32:59.263Z,40.20
2018-08-10T08:34:03.961Z,40.30
2018-08-10T08:35:08.734Z,40.30
2018-08-10T08:36:13.585Z,40.30
2018-08-10T08:37:18.387Z,40.30
2018-08-10T08:38:23.288Z,40.40
2018-08-10T08:39:27.998Z,40.50
2018-08-10T08:40:32.775Z,40.70
2018-08-10T08:41:37.635Z,40.90
2018-08-10T08:42:42.378Z,40.60
2018-08-10T08:43:47.063Z,40.40
2018-08-10T08:44:52.050Z,40.10
2018-08-10T08:45:57.030Z,40.00
2018-08-10T08:47:01.583Z,39.90
2018-08-10T08:48:06.459Z,39.90
2018-08-10T08:49:11.255Z,39.90
2018-08-10T08:50:15.992Z,39.80
2018-08-10T08:51:20.952Z,39.80
2018-08-10T08:52:25.923Z,39.80
2018-08-10T08:53:30.705Z,39.80
2018-08-10T08:54:35.483Z,39.50
2018-08-10T08:55:40.231Z,39.40
2018-08-10T08:56:45.032Z,39.30
2018-08-10T08:57:49.907Z,39.30
2018-08-10T08:58:54.750Z,39.40
2018-08-10T08:59:59.646Z,39.40
2018-08-10T09:01:04.591Z,39.40
2018-08-10T09:02:09.535Z,39.30
2018-08-10T09:03:14.408Z,39.20
2018-08-10T09:04:19.137Z,39.10
2018-08-10T09:05:24.048Z,39.10
2018-08-10T09:06:28.794Z,38.80
2018-08-10T09:07:33.795Z,38.60
2018-08-10T09:08:38.662Z,38.50
2018-08-10T09:09:43.525Z,38.50
2018-08-10T09:10:48.520Z,38.50
2018-08-10T09:11:53.297Z,38.50
2018-08-10T09:12:58.021Z,38.50
2018-08-10T09:14:03.032Z,38.40
2018-08-10T09:15:07.897Z,38.50
2018-08-10T09:16:12.951Z,39.10
2018-08-10T09:17:18.038Z,38.40
2018-08-10T09:18:22.986Z,38.40
2018-08-10T09:19:27.764Z,38.50
2018-08-10T09:20:32.668Z,38.60
2018-08-10T09:21:37.412Z,38.70
2018-08-10T09:22:42.404Z,38.90
2018-08-10T09:23:47.518Z,39.00
2018-08-10T09:24:52.567Z,39.00
2018-08-10T09:25:57.519Z,39.10
2018-08-10T09:27:02.559Z,39.10
2018-08-10T09:28:07.580Z,38.90
2018-08-10T09:29:12.648Z,38.70
2018-08-10T09:30:17.499Z,38.60
2018-08-10T09:31:22.361Z,38.60
2018-08-10T09:32:27.274Z,38.60
2018-08-10T09:33:32.270Z,38.70
2018-08-10T09:34:37.243Z,38.60
2018-08-10T09:35:42.265Z,38.40
2018-08-10T09:36:47.081Z,38.30
2018-08-10T09:37:51.993Z,38.30
2018-08-10T09:38:56.995Z,38.40
2018-08-10T09:40:01.777Z,38.50
2018-08-10T09:41:06.712Z,38.40
2018-08-10T09:42:11.662Z,38.30
2018-08-10T09:43:16.524Z,38.10
2018-08-10T09:44:21.281Z,38.00
2018-08-10T09:45:26.077Z,37.90
2018-08-10T09:46:30.858Z,37.90
2018-08-10T09:47:35.753Z,37.90
2018-08-10T09:48:40.665Z,37.90
2018-08-10T09:49:45.569Z,38.00
2018-08-10T09:50:50.458Z,38.00
2018-08-10T09:51:55.486Z,38.10
2018-08-10T09:53:00.376Z,38.10
2018-08-10T09:54:05.172Z,38.10
2018-08-10T09:55:09.915Z,38.20
2018-08-10T09:56:14.822Z,38.70
2018-08-10T09:57:19.610Z,37.80
2018-08-10T09:58:24.596Z,37.80
2018-08-10T09:59:29.479Z,37.90
2018-08-10T10:00:34.395Z,38.50
2018-08-10T10:01:39.685Z,37.90
2018-08-10T10:02:44.519Z,37.80
2018-08-10T10:03:49.397Z,37.50
2018-08-10T10:04:54.145Z,37.50
2018-08-10T10:05:59.130Z,37.50
2018-08-10T10:07:04.073Z,37.60
2018-08-10T10:08:08.892Z,37.90
2018-08-10T10:09:13.637Z,38.00
2018-08-10T10:10:18.665Z,38.10
2018-08-10T10:11:23.692Z,38.00
2018-08-10T10:12:28.648Z,38.00
2018-08-10T10:13:33.436Z,38.00
2018-08-10T10:14:38.188Z,37.90
2018-08-10T10:15:43.122Z,37.80
2018-08-10T10:16:47.825Z,37.70
2018-08-10T10:17:52.579Z,37.80
2018-08-10T10:18:57.250Z,38.50
2018-08-10T10:20:02.263Z,37.70
2018-08-10T10:21:07.145Z,37.50
2018-08-10T10:22:12.053Z,37.30
2018-08-10T10:23:17.044Z,37.10
2018-08-10T10:24:21.838Z,37.30
2018-08-10T10:25:26.591Z,37.30
2018-08-10T10:26:31.455Z,37.40
2018-08-10T10:27:36.157Z,37.30
2018-08-10T10:28:40.999Z,37.10
2018-08-10T10:29:45.915Z,37.00
2018-08-10T10:30:51.005Z,36.90
2018-08-10T10:31:55.901Z,36.80
2018-08-10T10:33:01.186Z,36.90
2018-08-10T10:34:06.117Z,37.00
2018-08-10T10:35:11.107Z,37.00
2018-08-10T10:36:15.953Z,37.20
2018-08-10T10:37:20.997Z,37.30
2018-08-10T10:38:26.104Z,37.50
2018-08-10T10:39:31.115Z,37.50
2018-08-10T10:40:36.020Z,37.30
2018-08-10T10:41:41.108Z,37.10
2018-08-10T10:42:46.095Z,36.90
2018-08-10T10:43:51.036Z,37.00
2018-08-10T10:44:55.963Z,37.10
2018-08-10T10:46:00.728Z,37.20
2018-08-10T10:47:05.585Z,37.30
2018-08-10T10:48:10.536Z,37.30
2018-08-10T10:49:15.385Z,37.40
2018-08-10T10:50:20.451Z,37.40
2018-08-10T10:51:25.213Z,37.40
2018-08-10T10:52:30.128Z,37.20
2018-08-10T10:53:35.058Z,37.20
2018-08-10T10:54:40.015Z,37.20
2018-08-10T10:55:44.787Z,37.10
2018-08-10T10:56:49.713Z,37.10
2018-08-10T10:57:54.485Z,37.10
2018-08-10T10:58:59.540Z,37.10
2018-08-10T11:00:04.524Z,37.20
2018-08-10T11:01:09.433Z,37.20
2018-08-10T11:02:14.324Z,37.40
2018-08-10T11:03:19.233Z,37.50
2018-08-10T11:04:24.145Z,37.70
2018-08-10T11:05:29.016Z,38.00
2018-08-10T11:06:33.836Z,38.10
2018-08-10T11:07:38.551Z,37.60
2018-08-10T11:08:43.300Z,37.30
2018-08-10T11:09:48.061Z,37.20
2018-08-10T11:10:53.003Z,37.20
2018-08-10T11:11:57.720Z,37.30
2018-08-10T11:13:02.499Z,37.40
2018-08-10T11:14:07.245Z,37.40
2018-08-10T11:15:12.245Z,37.40
2018-08-10T11:16:17.242Z,37.40
2018-08-10T11:17:22.272Z,37.30
2018-08-10T11:18:27.229Z,37.30
2018-08-10T11:19:32.257Z,37.40
2018-08-10T11:20:37.032Z,37.50
2018-08-10T11:21:41.890Z,37.60
2018-08-10T11:22:46.734Z,37.60
2018-08-10T11:23:51.704Z,37.70
2018-08-10T11:24:56.424Z,37.50
2018-08-10T11:26:01.484Z,37.20
2018-08-10T11:27:06.427Z,37.20
2018-08-10T11:28:11.322Z,37.20
2018-08-10T11:29:16.300Z,37.20
2018-08-10T11:30:21.191Z,37.20
2018-08-10T11:31:26.032Z,37.10
2018-08-10T11:32:30.878Z,37.00
2018-08-10T11:33:35.669Z,36.90
2018-08-10T11:34:40.362Z,37.00
2018-08-10T11:35:45.305Z,37.10
2018-08-10T11:36:50.021Z,37.10
2018-08-10T11:37:54.787Z,37.20
2018-08-10T11:38:59.609Z,37.20
2018-08-10T11:40:04.599Z,37.40
2018-08-10T11:41:09.454Z,37.60
2018-08-10T11:42:14.461Z,38.00
2018-08-10T11:43:19.305Z,38.30
2018-08-10T11:44:24.271Z,38.40
2018-08-10T11:45:28.972Z,38.30
2018-08-10T11:46:33.742Z,38.30
2018-08-10T11:47:38.612Z,38.40
2018-08-10T11:48:43.424Z,38.50
2018-08-10T11:49:48.327Z,38.60
2018-08-10T11:50:53.183Z,37.90
2018-08-10T11:51:58.103Z,37.60
2018-08-10T11:53:02.993Z,37.40
2018-08-10T11:54:07.855Z,37.30
2018-08-10T11:55:12.631Z,37.40
2018-08-10T11:56:17.523Z,37.40
2018-08-10T11:57:22.361Z,37.10
2018-08-10T11:58:27.176Z,37.10
2018-08-10T11:59:32.017Z,37.00
2018-08-10T12:00:36.862Z,36.90
2018-08-10T12:01:41.693Z,36.70
2018-08-10T12:02:46.442Z,36.80
2018-08-10T12:03:51.174Z,36.60
2018-08-10T12:04:55.886Z,36.40
2018-08-10T12:06:00.881Z,36.30
2018-08-10T12:07:05.743Z,36.00
2018-08-10T12:08:10.583Z,36.00
2018-08-10T12:09:15.452Z,36.00
2018-08-10T12:10:20.426Z,36.70
2018-08-10T12:11:25.181Z,36.30
2018-08-10T12:12:30.068Z,36.50
2018-08-10T12:13:34.907Z,36.80
2018-08-10T12:14:39.612Z,36.80
2018-08-10T12:15:44.348Z,36.80
2018-08-10T12:16:49.097Z,36.80
2018-08-10T12:17:54.028Z,36.80
2018-08-10T12:18:58.832Z,36.70
2018-08-10T12:20:03.803Z,36.80
2018-08-10T12:21:08.719Z,36.70
2018-08-10T12:22:13.603Z,36.60
2018-08-10T12:23:18.313Z,36.30
2018-08-10T12:24:23.381Z,36.20
2018-08-10T12:25:28.785Z,36.10
2018-08-10T12:26:33.512Z,36.30
2018-08-10T12:27:38.361Z,36.40
2018-08-10T12:28:43.225Z,36.50
2018-08-10T12:29:47.917Z,36.40
2018-08-10T12:30:52.820Z,36.20
2018-08-10T12:31:57.577Z,36.30
2018-08-10T12:33:02.578Z,36.40
2018-08-10T12:34:07.497Z,36.50
2018-08-10T12:35:12.242Z,36.60
2018-08-10T12:36:17.016Z,36.70
2018-08-10T12:37:21.800Z,36.90
2018-08-10T12:38:26.712Z,36.80
2018-08-10T12:39:31.682Z,36.60
2018-08-10T12:40:36.575Z,36.50
2018-08-10T12:41:41.482Z,36.60
2018-08-10T12:42:46.205Z,36.60
2018-08-10T12:43:50.977Z,36.70
2018-08-10T12:44:55.799Z,36.60
2018-08-10T12:46:00.710Z,36.60
2018-08-10T12:47:05.554Z,36.80
2018-08-10T12:48:13.346Z,37.00
2018-08-10T12:49:18.129Z,37.20
2018-08-10T12:50:23.180Z,37.40
2018-08-10T12:51:27.914Z,37.60
2018-08-10T12:52:32.898Z,37.60
2018-08-10T12:53:37.695Z,37.50
2018-08-10T12:54:42.483Z,37.50
2018-08-10T12:55:47.391Z,37.50
2018-08-10T12:56:52.326Z,37.50
2018-08-10T12:57:57.208Z,37.50
2018-08-10T12:59:02.087Z,37.30
2018-08-10T13:00:06.987Z,37.40
2018-08-10T13:01:11.766Z,37.50
2018-08-10T13:02:16.690Z,37.60
2018-08-10T13:03:21.571Z,37.70
2018-08-10T13:04:26.476Z,37.70
2018-08-10T13:05:31.223Z,37.80
2018-08-10T13:06:35.949Z,37.80
2018-08-10T13:07:40.760Z,37.90
2018-08-10T13:08:45.652Z,37.90
2018-08-10T13:09:50.458Z,38.10
2018-08-10T13:10:55.354Z,38.00
2018-08-10T13:12:00.131Z,37.90
2018-08-10T13:13:04.829Z,38.00
2018-08-10T13:14:09.682Z,38.00
2018-08-10T13:15:14.372Z,37.90
2018-08-10T13:16:19.231Z,37.80
2018-08-10T13:17:24.005Z,37.40
2018-08-10T13:18:28.922Z,37.00
2018-08-10T13:19:33.699Z,36.70
2018-08-10T13:20:38.454Z,36.60
2018-08-10T13:21:43.179Z,36.40
2018-08-10T13:22:47.969Z,36.50
2018-08-10T13:23:52.909Z,36.70
2018-08-10T13:24:57.584Z,36.80
2018-08-10T13:26:02.603Z,36.90
2018-08-10T13:27:07.578Z,36.40
2018-08-10T13:28:12.261Z,35.90
2018-08-10T13:29:17.116Z,35.50
2018-08-10T13:30:21.876Z,35.30
2018-08-10T13:31:26.760Z,35.00
2018-08-10T13:32:31.624Z,35.00
2018-08-10T13:33:36.961Z,34.80
2018-08-10T13:34:41.812Z,34.80
2018-08-10T13:35:46.655Z,34.90
2018-08-10T13:36:51.609Z,35.00
2018-08-10T13:37:56.591Z,35.00
2018-08-10T13:39:01.356Z,35.20
2018-08-10T13:40:06.216Z,35.00
2018-08-10T13:41:10.982Z,34.70
2018-08-10T13:42:15.779Z,34.50
2018-08-10T13:43:20.512Z,34.40
2018-08-10T13:44:25.349Z,34.50
2018-08-10T13:45:30.158Z,34.60
2018-08-10T13:46:35.252Z,34.60
2018-08-10T13:47:39.981Z,34.80
2018-08-10T13:48:44.849Z,34.80
2018-08-10T13:49:49.622Z,34.80
2018-08-10T13:50:54.421Z,34.90
2018-08-10T13:51:59.163Z,35.00
2018-08-10T13:53:04.131Z,35.10
2018-08-10T13:54:08.967Z,35.20
2018-08-10T13:55:13.955Z,35.10